createdAt,value
2019-03-29T00:00:24.709Z,6.44
2019-03-29T00:02:53.205Z,6.43
2019-03-29T00:05:22.473Z,6.43
2019-03-29T00:07:51.526Z,6.41
2019-03-29T00:10:20.302Z,6.42
2019-03-29T00:12:49.425Z,6.41
2019-03-29T00:15:17.931Z,6.39
2019-03-29T00:17:46.269Z,6.36
2019-03-29T00:20:14.857Z,6.34
2019-03-29T00:22:43.248Z,6.31
2019-03-29T00:25:12.439Z,6.30
2019-03-29T00:27:40.733Z,6.29
2019-03-29T00:30:09.297Z,6.26
2019-03-29T00:32:37.627Z,6.23
2019-03-29T00:35:07.895Z,6.19
2019-03-29T00:37:36.575Z,6.16
2019-03-29T00:40:05.210Z,6.11
2019-03-29T00:42:33.541Z,6.08
2019-03-29T00:45:02.180Z,6.08
2019-03-29T00:47:30.472Z,6.07
2019-03-29T00:49:59.350Z,6.07
2019-03-29T00:52:27.776Z,6.08
2019-03-29T00:54:56.337Z,6.04
2019-03-29T00:57:24.752Z,6.04
2019-03-29T00:59:53.113Z,6.01
2019-03-29T01:02:21.637Z,6.00
2019-03-29T01:04:56.549Z,6.00
2019-03-29T01:07:24.826Z,5.99
2019-03-29T01:09:53.171Z,5.99
2019-03-29T01:12:21.553Z,5.98
2019-03-29T01:14:50.053Z,5.96
2019-03-29T01:17:18.400Z,5.96
2019-03-29T01:19:46.877Z,5.96
2019-03-29T01:22:15.271Z,5.96
2019-03-29T01:24:43.652Z,5.89
2019-03-29T01:27:12.060Z,5.93
2019-03-29T01:29:40.540Z,5.91
2019-03-29T01:32:08.968Z,5.90
2019-03-29T01:34:37.446Z,5.87
2019-03-29T01:37:05.974Z,5.83
2019-03-29T01:39:34.340Z,5.81
2019-03-29T01:42:02.648Z,5.79
2019-03-29T01:44:31.055Z,5.77
2019-03-29T01:46:59.411Z,5.79
2019-03-29T01:49:27.754Z,5.75
2019-03-29T01:51:56.338Z,5.72
2019-03-29T01:54:25.268Z,5.71
2019-03-29T01:56:53.635Z,5.71
2019-03-29T01:59:22.048Z,5.68
2019-03-29T02:01:50.523Z,5.68
2019-03-29T02:04:18.878Z,5.65
2019-03-29T02:06:50.223Z,5.64
2019-03-29T02:09:18.758Z,5.63
2019-03-29T02:11:47.302Z,5.62
2019-03-29T02:14:15.759Z,5.64
2019-03-29T02:16:44.359Z,5.64
2019-03-29T02:19:12.782Z,5.63
2019-03-29T02:21:42.973Z,5.63
2019-03-29T02:24:11.630Z,5.62
2019-03-29T02:26:40.043Z,5.62
2019-03-29T02:29:08.384Z,5.62
2019-03-29T02:31:36.765Z,5.61
2019-03-29T02:34:05.148Z,5.63
2019-03-29T02:36:34.646Z,5.65
2019-03-29T02:39:04.122Z,5.65
2019-03-29T02:41:32.546Z,5.64
2019-03-29T02:44:01.481Z,5.65
2019-03-29T02:46:30.018Z,5.63
2019-03-29T02:48:58.838Z,5.65
2019-03-29T02:51:27.335Z,5.66
2019-03-29T02:53:55.855Z,5.67
2019-03-29T02:56:24.342Z,5.69
2019-03-29T02:58:52.754Z,5.70
2019-03-29T03:01:21.244Z,5.67
2019-03-29T03:03:49.527Z,5.70
2019-03-29T03:06:18.007Z,5.73
2019-03-29T03:08:47.034Z,5.75
2019-03-29T03:11:15.636Z,5.76
2019-03-29T03:13:43.920Z,5.77
2019-03-29T03:16:12.591Z,5.81
2019-03-29T03:18:40.921Z,5.82
2019-03-29T03:21:09.507Z,5.84
2019-03-29T03:23:37.891Z,5.87
2019-03-29T03:26:06.532Z,5.87
2019-03-29T03:28:34.981Z,5.87
2019-03-29T03:31:04.062Z,5.85
2019-03-29T03:33:32.464Z,5.86
2019-03-29T03:36:00.866Z,5.89
2019-03-29T03:38:29.434Z,5.86
2019-03-29T03:40:57.915Z,5.84
2019-03-29T03:43:26.299Z,5.85
2019-03-29T03:45:54.697Z,5.88
2019-03-29T03:48:23.162Z,5.90
2019-03-29T03:50:51.755Z,5.95
2019-03-29T03:53:20.351Z,5.96
2019-03-29T03:55:50.534Z,5.98
2019-03-29T03:58:21.217Z,6.00
2019-03-29T04:00:55.336Z,6.03
2019-03-29T04:03:24.314Z,6.03
2019-03-29T04:05:52.873Z,6.05
2019-03-29T04:08:21.616Z,6.06
2019-03-29T04:10:50.140Z,6.09
2019-03-29T04:13:18.879Z,6.12
2019-03-29T04:15:47.208Z,6.13
2019-03-29T04:18:16.645Z,6.14
2019-03-29T04:20:45.528Z,6.16
2019-03-29T04:23:13.921Z,6.18
2019-03-29T04:25:42.337Z,6.20
2019-03-29T04:28:10.777Z,6.21
2019-03-29T04:30:39.174Z,6.24
2019-03-29T04:33:11.073Z,6.25
2019-03-29T04:35:38.169Z,6.27
2019-03-29T04:38:06.706Z,6.28
2019-03-29T04:40:36.066Z,6.29
2019-03-29T04:43:04.657Z,6.32
2019-03-29T04:45:33.137Z,6.33
2019-03-29T04:48:01.798Z,6.36
2019-03-29T04:50:30.095Z,6.40
2019-03-29T04:52:58.588Z,6.41
2019-03-29T04:55:27.009Z,6.44
2019-03-29T04:57:55.494Z,6.46
2019-03-29T05:00:23.923Z,6.48
2019-03-29T05:02:52.315Z,6.51
2019-03-29T05:05:21.436Z,6.52
2019-03-29T05:07:49.836Z,6.55
2019-03-29T05:10:21.457Z,6.57
2019-03-29T05:12:48.818Z,6.60
2019-03-29T05:15:17.159Z,6.62
2019-03-29T05:17:45.629Z,6.64
2019-03-29T05:20:14.422Z,6.67
2019-03-29T05:22:42.907Z,6.70
2019-03-29T05:25:11.428Z,6.72
2019-03-29T05:27:40.227Z,6.75
2019-03-29T05:30:08.863Z,6.78
2019-03-29T05:32:37.267Z,6.82
2019-03-29T05:35:06.026Z,6.87
2019-03-29T05:37:34.542Z,6.89
2019-03-29T05:40:03.199Z,6.95
2019-03-29T05:42:33.707Z,6.97
2019-03-29T05:45:02.307Z,7.01
2019-03-29T05:47:30.683Z,7.04
2019-03-29T05:49:59.100Z,7.09
2019-03-29T05:52:27.559Z,7.11
2019-03-29T05:54:56.018Z,7.16
2019-03-29T05:57:24.548Z,7.19
2019-03-29T05:59:53.630Z,7.23
2019-03-29T06:02:22.030Z,7.26
2019-03-29T06:04:50.493Z,7.30
2019-03-29T06:07:18.798Z,7.35
2019-03-29T06:09:47.264Z,7.38
2019-03-29T06:12:15.871Z,7.44
2019-03-29T06:14:44.929Z,7.48
2019-03-29T06:17:13.356Z,7.53
2019-03-29T06:19:41.830Z,7.57
2019-03-29T06:22:10.250Z,7.62
2019-03-29T06:24:38.852Z,7.66
2019-03-29T06:27:07.949Z,7.71
2019-03-29T06:29:36.305Z,7.78
2019-03-29T06:32:04.633Z,7.82
2019-03-29T06:34:33.189Z,7.87
2019-03-29T06:37:01.915Z,7.93
2019-03-29T06:39:31.297Z,7.95
2019-03-29T06:41:59.700Z,8.03
2019-03-29T06:44:28.088Z,8.09
2019-03-29T06:47:09.939Z,8.15
2019-03-29T06:49:38.485Z,8.22
2019-03-29T06:52:06.880Z,8.29
2019-03-29T06:54:35.277Z,8.36
2019-03-29T06:57:04.777Z,8.42
2019-03-29T06:59:33.122Z,8.53
2019-03-29T07:02:01.473Z,8.57
2019-03-29T07:04:29.834Z,8.61
2019-03-29T07:06:58.357Z,8.71
2019-03-29T07:09:26.845Z,8.77
2019-03-29T07:11:55.393Z,8.83
2019-03-29T07:14:23.894Z,8.94
2019-03-29T07:16:52.244Z,8.97
2019-03-29T07:19:20.814Z,9.07
2019-03-29T07:21:49.840Z,9.17
2019-03-29T07:24:18.353Z,9.25
2019-03-29T07:26:46.784Z,9.38
2019-03-29T07:29:15.171Z,9.43
2019-03-29T07:31:45.105Z,9.58
2019-03-29T07:34:13.608Z,9.59
2019-03-29T07:36:42.291Z,9.65
2019-03-29T07:39:10.580Z,9.71
2019-03-29T07:41:38.986Z,9.77
2019-03-29T07:44:07.282Z,9.85
2019-03-29T07:46:35.647Z,9.90
2019-03-29T07:49:12.301Z,10.00
2019-03-29T07:51:40.706Z,10.05
2019-03-29T07:54:09.138Z,10.14
2019-03-29T07:56:37.680Z,10.19
2019-03-29T07:59:06.188Z,10.23
2019-03-29T08:01:35.640Z,10.29
2019-03-29T08:04:04.324Z,10.37
2019-03-29T08:06:32.821Z,10.45
2019-03-29T08:09:01.466Z,10.50
2019-03-29T08:11:29.878Z,10.55
2019-03-29T08:13:58.287Z,10.63
2019-03-29T08:16:26.748Z,10.71
2019-03-29T08:18:55.251Z,10.78
2019-03-29T08:21:23.868Z,10.82
2019-03-29T08:23:52.164Z,10.85
2019-03-29T08:26:20.644Z,10.90
2019-03-29T08:28:49.160Z,10.94
2019-03-29T08:31:17.547Z,11.00
2019-03-29T08:33:45.957Z,11.01
2019-03-29T08:36:15.247Z,11.00
2019-03-29T08:38:43.556Z,11.00
2019-03-29T08:41:12.040Z,11.02
2019-03-29T08:43:40.341Z,11.01
2019-03-29T08:46:09.052Z,11.04
2019-03-29T08:48:37.803Z,11.02
2019-03-29T08:51:07.869Z,11.01
2019-03-29T08:53:36.303Z,11.01
2019-03-29T08:56:05.199Z,11.03
2019-03-29T08:58:34.350Z,11.04
2019-03-29T09:01:02.909Z,11.06
2019-03-29T09:03:33.324Z,11.11
2019-03-29T09:06:02.003Z,11.17
2019-03-29T09:08:30.555Z,11.22
2019-03-29T09:10:59.006Z,11.27
2019-03-29T09:13:27.446Z,11.33
2019-03-29T09:15:55.993Z,11.38
2019-03-29T09:18:26.107Z,11.48
2019-03-29T09:20:54.810Z,11.51
2019-03-29T09:23:23.208Z,11.55
2019-03-29T09:25:51.649Z,11.60
2019-03-29T09:28:20.008Z,11.79
2019-03-29T09:30:48.572Z,12.11
2019-03-29T09:33:17.021Z,12.32
2019-03-29T09:35:45.501Z,12.29
2019-03-29T09:38:14.684Z,12.22
2019-03-29T09:40:50.857Z,12.12
2019-03-29T09:43:13.720Z,12.07
2019-03-29T09:45:42.304Z,11.97
2019-03-29T09:48:10.886Z,11.93
2019-03-29T09:50:39.409Z,11.86
2019-03-29T09:53:11.318Z,11.95
2019-03-29T09:55:40.739Z,11.95
2019-03-29T09:58:09.257Z,11.86
2019-03-29T10:00:37.668Z,11.86
2019-03-29T10:03:06.153Z,11.94
2019-03-29T10:05:34.496Z,12.00
2019-03-29T10:08:03.095Z,12.10
2019-03-29T10:10:34.479Z,12.16
2019-03-29T10:13:02.758Z,12.12
2019-03-29T10:15:31.200Z,12.19
2019-03-29T10:17:59.557Z,12.19
2019-03-29T10:20:27.905Z,12.21
2019-03-29T10:22:56.285Z,12.10
2019-03-29T10:25:24.730Z,12.06
2019-03-29T10:27:53.290Z,12.11
2019-03-29T10:30:36.691Z,12.11
2019-03-29T10:33:05.652Z,12.19
2019-03-29T10:35:34.034Z,12.25
2019-03-29T10:38:03.124Z,12.31
2019-03-29T10:40:31.450Z,12.40
2019-03-29T10:43:00.022Z,12.40
2019-03-29T10:45:28.557Z,12.38
2019-03-29T10:47:57.123Z,12.28
2019-03-29T10:50:25.524Z,12.24
2019-03-29T10:52:54.165Z,12.28
2019-03-29T10:55:25.724Z,12.33
2019-03-29T10:57:54.174Z,12.36
2019-03-29T11:00:33.742Z,12.36
2019-03-29T11:03:02.350Z,12.42
2019-03-29T11:05:30.883Z,12.42
2019-03-29T11:07:59.458Z,12.34
2019-03-29T11:10:32.391Z,12.32
2019-03-29T11:13:12.724Z,12.47
2019-03-29T11:15:32.118Z,12.47
2019-03-29T11:18:00.667Z,12.56
2019-03-29T11:20:29.092Z,12.63
2019-03-29T11:22:57.575Z,12.81
2019-03-29T11:25:26.067Z,12.81
2019-03-29T11:27:54.644Z,12.91
2019-03-29T11:30:23.688Z,12.97
2019-03-29T11:32:52.275Z,12.98
2019-03-29T11:35:21.370Z,12.98
2019-03-29T11:37:49.840Z,12.98
2019-03-29T11:40:18.405Z,12.90
2019-03-29T11:42:46.975Z,12.90
2019-03-29T11:45:15.584Z,12.85
2019-03-29T11:47:44.375Z,12.84
2019-03-29T11:50:13.169Z,12.84
2019-03-29T11:52:41.688Z,12.51
2019-03-29T11:55:10.374Z,12.58
2019-03-29T11:57:45.762Z,12.58
2019-03-29T12:00:16.948Z,12.37
2019-03-29T12:02:45.272Z,12.44
2019-03-29T12:05:14.315Z,12.41
2019-03-29T12:07:42.957Z,12.53
2019-03-29T12:10:11.573Z,12.47
2019-03-29T12:12:40.135Z,12.56
2019-03-29T12:15:08.704Z,12.56
2019-03-29T12:17:37.710Z,12.61
2019-03-29T12:20:07.407Z,12.64
2019-03-29T12:22:35.935Z,12.64
2019-03-29T12:25:05.189Z,12.77
2019-03-29T12:27:33.726Z,12.76
2019-03-29T12:30:02.306Z,12.76
2019-03-29T12:32:30.833Z,12.76
2019-03-29T12:34:59.230Z,12.73
2019-03-29T12:37:27.905Z,12.84
2019-03-29T12:39:56.281Z,12.84
2019-03-29T12:42:24.885Z,12.92
2019-03-29T12:44:53.400Z,13.10
2019-03-29T12:47:21.825Z,13.10
2019-03-29T12:49:50.240Z,13.17
2019-03-29T12:52:18.597Z,13.26
2019-03-29T12:54:47.633Z,13.42
2019-03-29T12:57:16.165Z,13.94
2019-03-29T12:59:48.663Z,13.94
2019-03-29T13:02:18.274Z,13.95
2019-03-29T13:04:47.353Z,13.81
2019-03-29T13:07:15.829Z,13.62
2019-03-29T13:09:44.228Z,13.55
2019-03-29T13:12:12.848Z,13.55
2019-03-29T13:14:41.308Z,13.64
2019-03-29T13:17:09.852Z,13.54
2019-03-29T13:19:38.758Z,13.54
2019-03-29T13:22:08.281Z,13.54
2019-03-29T13:24:36.874Z,13.37
2019-03-29T13:27:05.306Z,13.37
2019-03-29T13:29:33.649Z,13.36
2019-03-29T13:32:03.350Z,13.28
2019-03-29T13:34:31.847Z,13.34
2019-03-29T13:37:01.990Z,13.34
2019-03-29T13:39:30.584Z,13.23
2019-03-29T13:41:59.006Z,13.33
2019-03-29T13:44:28.424Z,13.22
2019-03-29T13:46:57.000Z,13.29
2019-03-29T13:49:25.452Z,13.29
2019-03-29T13:51:53.892Z,13.42
2019-03-29T13:54:22.305Z,13.42
2019-03-29T13:56:51.348Z,13.47
2019-03-29T13:59:19.671Z,13.60
2019-03-29T14:01:52.340Z,13.73
2019-03-29T14:04:20.624Z,13.73
2019-03-29T14:06:49.112Z,13.80
2019-03-29T14:09:17.473Z,13.84
2019-03-29T14:11:45.841Z,13.97
2019-03-29T14:14:14.200Z,13.97
2019-03-29T14:16:42.596Z,13.94
2019-03-29T14:19:10.900Z,14.00
2019-03-29T14:21:39.306Z,13.98
2019-03-29T14:24:07.624Z,14.03
2019-03-29T14:26:36.009Z,14.05
2019-03-29T14:29:04.543Z,14.25
2019-03-29T14:31:33.113Z,14.30
2019-03-29T14:34:01.474Z,14.10
2019-03-29T14:36:30.086Z,14.10
2019-03-29T14:38:58.415Z,14.21
2019-03-29T14:41:26.876Z,14.08
2019-03-29T14:43:55.300Z,14.10
2019-03-29T14:46:23.672Z,14.13
2019-03-29T14:48:52.234Z,14.11
2019-03-29T14:51:20.681Z,14.25
2019-03-29T14:53:48.984Z,14.28
2019-03-29T14:56:17.576Z,14.26
2019-03-29T14:58:45.914Z,14.42
2019-03-29T15:01:14.602Z,14.51
2019-03-29T15:03:43.038Z,14.66
2019-03-29T15:06:11.603Z,14.82
2019-03-29T15:08:40.851Z,14.98
2019-03-29T15:11:21.648Z,15.15
2019-03-29T15:13:39.657Z,15.32
2019-03-29T15:16:08.241Z,15.37
2019-03-29T15:18:36.609Z,15.35
2019-03-29T15:21:05.296Z,15.42
2019-03-29T15:23:33.640Z,15.40
2019-03-29T15:26:02.141Z,15.33
2019-03-29T15:28:31.013Z,15.31
2019-03-29T15:30:59.533Z,15.37
2019-03-29T15:33:27.911Z,15.25
2019-03-29T15:35:56.451Z,15.27
2019-03-29T15:38:24.932Z,15.31
2019-03-29T15:40:53.345Z,15.34
2019-03-29T15:43:21.824Z,15.31
2019-03-29T15:45:50.196Z,15.31
2019-03-29T15:48:18.551Z,15.31
2019-03-29T15:50:47.776Z,15.37
2019-03-29T15:53:16.211Z,15.31
2019-03-29T15:55:45.229Z,15.28
2019-03-29T15:58:13.713Z,15.19
2019-03-29T16:00:42.053Z,15.18
2019-03-29T16:03:10.463Z,15.16
2019-03-29T16:05:38.924Z,15.17
2019-03-29T16:08:09.984Z,15.14
2019-03-29T16:10:41.066Z,15.10
2019-03-29T16:13:09.101Z,15.10
2019-03-29T16:15:38.462Z,15.03
2019-03-29T16:18:07.345Z,15.00
2019-03-29T16:20:37.044Z,14.88
2019-03-29T16:23:05.575Z,14.89
2019-03-29T16:25:33.952Z,15.40
2019-03-29T16:28:02.529Z,16.06
2019-03-29T16:30:31.088Z,16.63
2019-03-29T16:32:59.588Z,16.63
2019-03-29T16:35:27.995Z,16.78
2019-03-29T16:37:57.743Z,16.86
2019-03-29T16:40:26.336Z,17.05
2019-03-29T16:42:54.908Z,17.13
2019-03-29T16:45:24.739Z,17.17
2019-03-29T16:47:53.108Z,17.21
2019-03-29T16:50:21.599Z,17.28
2019-03-29T16:52:50.621Z,17.34
2019-03-29T16:55:19.086Z,17.34
2019-03-29T16:57:47.556Z,17.34
2019-03-29T17:00:18.086Z,17.00
2019-03-29T17:02:46.573Z,16.57
2019-03-29T17:05:15.484Z,15.84
2019-03-29T17:07:43.964Z,15.84
2019-03-29T17:10:18.630Z,15.60
2019-03-29T17:12:47.176Z,15.46
2019-03-29T17:15:15.726Z,15.27
2019-03-29T17:17:44.287Z,15.11
2019-03-29T17:20:12.804Z,14.97
2019-03-29T17:22:43.279Z,14.82
2019-03-29T17:25:11.745Z,14.68
2019-03-29T17:27:40.099Z,14.56
2019-03-29T17:30:09.939Z,14.46
2019-03-29T17:32:38.444Z,14.34
2019-03-29T17:35:07.534Z,14.24
2019-03-29T17:37:36.201Z,14.17
2019-03-29T17:40:06.603Z,14.05
2019-03-29T17:42:35.230Z,13.97
2019-03-29T17:45:03.999Z,13.86
2019-03-29T17:47:32.404Z,13.75
2019-03-29T17:50:00.868Z,13.66
2019-03-29T17:52:29.438Z,13.58
2019-03-29T17:54:58.112Z,13.50
2019-03-29T17:57:26.509Z,13.35
2019-03-29T17:59:55.557Z,13.35
2019-03-29T18:02:24.180Z,13.31
2019-03-29T18:04:52.578Z,13.24
2019-03-29T18:07:21.139Z,13.20
2019-03-29T18:09:49.600Z,13.12
2019-03-29T18:12:26.819Z,13.02
2019-03-29T18:14:55.473Z,12.95
2019-03-29T18:17:23.926Z,12.87
2019-03-29T18:19:52.475Z,12.80
2019-03-29T18:22:21.485Z,12.72
2019-03-29T18:24:50.007Z,12.65
2019-03-29T18:27:18.547Z,12.58
2019-03-29T18:29:47.126Z,12.55
2019-03-29T18:32:16.129Z,12.47
2019-03-29T18:34:44.697Z,12.42
2019-03-29T18:37:14.842Z,12.29
2019-03-29T18:39:43.973Z,12.29
2019-03-29T18:42:12.398Z,12.26
2019-03-29T18:44:40.787Z,12.19
2019-03-29T18:47:09.300Z,12.09
2019-03-29T18:49:37.834Z,12.03
2019-03-29T18:52:06.388Z,11.98
2019-03-29T18:54:34.790Z,11.94
2019-03-29T18:57:03.219Z,11.86
2019-03-29T18:59:31.606Z,11.75
2019-03-29T19:02:00.158Z,11.72
2019-03-29T19:04:28.636Z,11.63
2019-03-29T19:06:57.155Z,11.57
2019-03-29T19:09:25.671Z,11.46
2019-03-29T19:11:54.193Z,11.35
2019-03-29T19:14:29.046Z,11.35
2019-03-29T19:16:59.475Z,11.31
2019-03-29T19:19:28.733Z,11.10
2019-03-29T19:21:59.571Z,11.10
2019-03-29T19:24:28.171Z,11.07
2019-03-29T19:26:56.581Z,10.97
2019-03-29T19:29:25.250Z,10.84
2019-03-29T19:31:56.061Z,10.73
2019-03-29T19:34:24.173Z,10.66
2019-03-29T19:36:53.263Z,10.61
2019-03-29T19:39:21.698Z,10.61
2019-03-29T19:41:50.247Z,10.53
2019-03-29T19:44:18.700Z,10.50
2019-03-29T19:46:47.253Z,10.47
2019-03-29T19:49:15.542Z,10.41
2019-03-29T19:51:44.013Z,10.33
2019-03-29T19:54:12.530Z,10.24
2019-03-29T19:56:41.098Z,10.24
2019-03-29T19:59:09.509Z,10.18
2019-03-29T20:01:37.893Z,10.13
2019-03-29T20:04:09.655Z,10.09
2019-03-29T20:06:37.452Z,10.04
2019-03-29T20:09:08.112Z,9.99
2019-03-29T20:11:36.467Z,9.93
2019-03-29T20:14:05.058Z,9.89
2019-03-29T20:16:35.464Z,9.83
2019-03-29T20:19:04.053Z,9.79
2019-03-29T20:21:32.705Z,9.73
2019-03-29T20:24:01.271Z,9.70
2019-03-29T20:26:30.488Z,9.61
2019-03-29T20:28:58.805Z,9.61
2019-03-29T20:31:28.219Z,9.56
2019-03-29T20:33:56.737Z,9.50
2019-03-29T20:36:25.153Z,9.46
2019-03-29T20:38:53.593Z,9.42
2019-03-29T20:41:22.282Z,9.36
2019-03-29T20:43:50.742Z,9.31
2019-03-29T20:46:19.227Z,9.27
2019-03-29T20:48:47.767Z,9.24
2019-03-29T20:51:16.275Z,9.19
2019-03-29T20:53:44.877Z,9.17
2019-03-29T20:56:13.479Z,9.11
2019-03-29T20:58:42.044Z,9.06
2019-03-29T21:01:10.654Z,9.01
2019-03-29T21:03:38.975Z,9.00
2019-03-29T21:06:07.482Z,8.95
2019-03-29T21:08:35.896Z,8.88
2019-03-29T21:11:04.453Z,8.88
2019-03-29T21:13:32.844Z,8.77
2019-03-29T21:16:01.430Z,8.73
2019-03-29T21:18:29.743Z,8.67
2019-03-29T21:20:58.080Z,8.65
2019-03-29T21:23:27.016Z,8.63
2019-03-29T21:25:55.468Z,8.53
2019-03-29T21:28:24.301Z,8.56
2019-03-29T21:30:52.649Z,8.56
2019-03-29T21:33:22.152Z,8.52
2019-03-29T21:35:50.685Z,8.52
2019-03-29T21:38:19.039Z,8.52
2019-03-29T21:40:47.385Z,8.48
2019-03-29T21:43:15.934Z,8.44
2019-03-29T21:45:44.447Z,8.39
2019-03-29T21:48:28.090Z,8.31
2019-03-29T21:50:43.038Z,8.26
2019-03-29T21:53:11.537Z,8.28
2019-03-29T21:55:39.829Z,8.29
2019-03-29T21:58:08.228Z,8.26
2019-03-29T22:00:36.556Z,8.20
2019-03-29T22:03:05.136Z,8.15
2019-03-29T22:05:33.470Z,8.11
2019-03-29T22:08:02.000Z,8.06
2019-03-29T22:10:30.517Z,8.02
2019-03-29T22:12:58.932Z,7.98
2019-03-29T22:15:27.430Z,7.96
2019-03-29T22:17:55.876Z,7.92
2019-03-29T22:20:24.320Z,7.90
2019-03-29T22:22:52.707Z,7.87
2019-03-29T22:25:21.209Z,7.83
2019-03-29T22:27:49.697Z,7.78
2019-03-29T22:30:18.327Z,7.72
2019-03-29T22:32:47.179Z,7.68
2019-03-29T22:35:15.898Z,7.62
2019-03-29T22:37:44.320Z,7.58
2019-03-29T22:40:12.876Z,7.55
2019-03-29T22:42:41.422Z,7.50
2019-03-29T22:45:10.181Z,7.50
2019-03-29T22:47:39.578Z,7.48
2019-03-29T22:50:08.844Z,7.40
2019-03-29T22:52:37.529Z,7.43
2019-03-29T22:55:06.619Z,7.37
2019-03-29T22:57:35.097Z,7.32
2019-03-29T23:00:06.655Z,7.27
2019-03-29T23:02:35.174Z,7.24
2019-03-29T23:05:04.276Z,7.21
2019-03-29T23:07:32.779Z,7.20
2019-03-29T23:10:01.120Z,7.15
2019-03-29T23:12:29.633Z,7.13
2019-03-29T23:14:58.208Z,7.10
2019-03-29T23:17:26.809Z,7.08
2019-03-29T23:19:55.740Z,7.01
2019-03-29T23:22:24.250Z,6.98
2019-03-29T23:24:52.744Z,6.95
2019-03-29T23:27:22.086Z,6.93
2019-03-29T23:29:50.640Z,6.90
2019-03-29T23:32:19.183Z,6.88
2019-03-29T23:34:47.584Z,6.86
2019-03-29T23:37:16.110Z,6.77
2019-03-29T23:39:44.594Z,6.74
2019-03-29T23:42:13.004Z,6.73
2019-03-29T23:44:41.373Z,6.71
2019-03-29T23:47:09.713Z,6.67
2019-03-29T23:49:38.763Z,6.63
2019-03-29T23:52:08.105Z,6.59
2019-03-29T23:54:36.532Z,6.58
2019-03-29T23:57:05.072Z,6.55
2019-03-29T23:59:33.523Z,6.50
